Taxila Weather



Taxila's Current Weather

Temprature 20.56o broken clouds

broken clouds

Rain: 0 %

Min Temprature20.56o
Max Temprature20.56o
Humidity76
Wind Speed2.33 m/h
Sun Rise05:31:27
Sun Set18:43:18
Current Time: 21-Apr-2019 05:23:46
Lat/Lon: 33.75, 72.81




Taxila's Geo Location



Taxila's Weather Forecast

Time Overall Temp Min Temp Max Temp Humidity Wind Speed Rain
21-Apr-2019 (Sun)
08:00:00 few clouds 24.860 24.849 24.860 36 1.86 m/h 0 %
11:00:00 clear sky 29.960 29.950 29.960 26 2.5 m/h 0 %
14:00:00 clear sky 32.360 32.350 32.360 22 1.95 m/h 0 %
17:00:00 clear sky 32.150 32.150 32.150 22 0.92 m/h 0 %
20:00:00 clear sky 26.250 26.250 26.250 31 2.5 m/h 0 %
23:00:00 scattered clouds 24.240 24.240 24.240 37 3.18 m/h 0 %
22-Apr-2019 (Mon)
02:00:00 few clouds 22.570 22.570 22.570 41 2.98 m/h 0 %
05:00:00 few clouds 21.524 21.524 21.524 38 2.39 m/h 0 %
08:00:00 clear sky 25.946 25.946 25.946 30 2 m/h 0 %
11:00:00 clear sky 31.520 31.520 31.520 22 2.56 m/h 0 %
14:00:00 clear sky 34.015 34.015 34.015 20 2.4 m/h 0 %
17:00:00 clear sky 33.731 33.731 33.731 21 1.2 m/h 0 %
20:00:00 clear sky 27.750 27.750 27.750 30 2.51 m/h 0 %
23:00:00 clear sky 25.196 25.196 25.196 35 3.09 m/h 0 %
23-Apr-2019 (Tue)
02:00:00 clear sky 23.677 23.677 23.677 33 3.4 m/h 0 %
05:00:00 broken clouds 22.696 22.696 22.696 29 2.8 m/h 0 %
08:00:00 overcast clouds 26.197 26.197 26.197 29 2.33 m/h 0 %
11:00:00 overcast clouds 32.550 32.550 32.550 17 3.23 m/h 0 %
14:00:00 few clouds 35.650 35.650 35.650 13 2.27 m/h 0 %
17:00:00 clear sky 35.350 35.350 35.350 16 0.83 m/h 0 %
20:00:00 few clouds 29.228 29.228 29.228 22 1.87 m/h 0 %
23:00:00 broken clouds 26.750 26.750 26.750 29 2.19 m/h 0 %
24-Apr-2019 (Wed)
02:00:00 light rain 25.782 25.782 25.782 30 3.9 m/h 19 %
05:00:00 overcast clouds 23.614 23.614 23.614 36 1.31 m/h 0 %
08:00:00 light rain 25.550 25.550 25.550 43 2.06 m/h 156 %
11:00:00 light rain 32.208 32.208 32.208 27 3.21 m/h 113 %
14:00:00 broken clouds 35.750 35.750 35.750 20 2.19 m/h 0 %
17:00:00 overcast clouds 27.650 27.650 27.650 40 9.91 m/h 0 %
20:00:00 overcast clouds 26.155 26.155 26.155 45 3.59 m/h 0 %
23:00:00 overcast clouds 24.145 24.145 24.145 52 2.53 m/h 0 %
25-Apr-2019 (Thu)
02:00:00 overcast clouds 23.650 23.650 23.650 48 2.14 m/h 0 %
05:00:00 broken clouds 21.702 21.702 21.702 53 2.34 m/h 0 %
08:00:00 clear sky 26.220 26.220 26.220 42 2.55 m/h 0 %
11:00:00 clear sky 31.990 31.990 31.990 28 3 m/h 0 %
14:00:00 clear sky 35.150 35.150 35.150 20 1.99 m/h 0 %
17:00:00 clear sky 34.911 34.911 34.911 18 0.81 m/h 0 %
20:00:00 clear sky 29.125 29.125 29.125 26 1.92 m/h 0 %
23:00:00 light rain 25.343 25.343 25.343 35 3.9 m/h 25 %
26-Apr-2019 (Fri)
02:00:00 overcast clouds 23.832 23.832 23.832 36 4.7 m/h 0 %
05:00:00 broken clouds 21.516 21.516 21.516 41 2.75 m/h 0 %

Famous Cities (60)